Kalber, Washington
Current Conditions -  °F | °C
As of 4:15 PM on Wednesday 22 Oct 2014 (Local Time) from KCLS Reporting Station
Light Rain Light Rain  
Wind Chill: 57°   Ceiling: 7500
Heat Index: 57°   Visibility: 10mi
Dew Point: 55°   Wind: 12mph
Humidity: 94%   Direction: 160°SSE
Pressure: 29.62"   Gusts: 18mph
Location:  46.5326°N, 123.142°W
Report Text: KCLS 222315Z AUTO 16010G16KT 10SM -RA FEW013 SCT060 BKN075 14/13 A2962 RMK AO2
Loading
Personal Weather Stations






























Interactive Weather Map
Tropical Storm Tracking
New forecast layout! Learn more

10-Day Weather Forecast

Advertisements
Track Severe Weather on mobile